sensor_id;sensor_type;location;lat;lon;timestamp;pressure;altitude;pressure_sealevel;temperature
72054;BMP280;59918;51.280;7.950;2023-12-14T00:00:30;97000.94;;;7.69
72054;BMP280;59918;51.280;7.950;2023-12-14T00:02:55;96997.94;;;7.72
72054;BMP280;59918;51.280;7.950;2023-12-14T00:05:20;97001.28;;;7.73
72054;BMP280;59918;51.280;7.950;2023-12-14T00:07:45;97002.66;;;7.75
72054;BMP280;59918;51.280;7.950;2023-12-14T00:10:13;97007.56;;;7.77
72054;BMP280;59918;51.280;7.950;2023-12-14T00:12:38;97010.69;;;7.79
72054;BMP280;59918;51.280;7.950;2023-12-14T00:15:04;97016.81;;;7.78
72054;BMP280;59918;51.280;7.950;2023-12-14T00:17:30;97017.78;;;7.77
72054;BMP280;59918;51.280;7.950;2023-12-14T00:19:56;97030.00;;;7.75
72054;BMP280;59918;51.280;7.950;2023-12-14T00:22:21;97030.00;;;7.75
72054;BMP280;59918;51.280;7.950;2023-12-14T00:24:46;97027.25;;;7.76
72054;BMP280;59918;51.280;7.950;2023-12-14T00:27:11;97031.16;;;7.79
72054;BMP280;59918;51.280;7.950;2023-12-14T00:29:37;97030.19;;;7.80
72054;BMP280;59918;51.280;7.950;2023-12-14T00:32:02;97040.25;;;7.81
72054;BMP280;59918;51.280;7.950;2023-12-14T00:34:27;97036.69;;;7.82
72054;BMP280;59918;51.280;7.950;2023-12-14T00:36:53;97039.03;;;7.84
72054;BMP280;59918;51.280;7.950;2023-12-14T00:39:18;97040.81;;;7.83
72054;BMP280;59918;51.280;7.950;2023-12-14T00:41:43;97044.16;;;7.84
72054;BMP280;59918;51.280;7.950;2023-12-14T00:44:08;97045.72;;;7.85
72054;BMP280;59918;51.280;7.950;2023-12-14T00:46:34;97051.84;;;7.84
72054;BMP280;59918;51.280;7.950;2023-12-14T00:48:59;97056.38;;;7.82
72054;BMP280;59918;51.280;7.950;2023-12-14T00:51:24;97058.94;;;7.82
72054;BMP280;59918;51.280;7.950;2023-12-14T00:53:49;97060.91;;;7.80
72054;BMP280;59918;51.280;7.950;2023-12-14T00:56:14;97074.69;;;7.79
72054;BMP280;59918;51.280;7.950;2023-12-14T00:58:40;97073.31;;;7.76
72054;BMP280;59918;51.280;7.950;2023-12-14T01:01:05;97073.91;;;7.78
72054;BMP280;59918;51.280;7.950;2023-12-14T01:03:30;97084.91;;;7.79
72054;BMP280;59918;51.280;7.950;2023-12-14T01:05:55;97089.06;;;7.80
72054;BMP280;59918;51.280;7.950;2023-12-14T01:08:21;97096.31;;;7.83
72054;BMP280;59918;51.280;7.950;2023-12-14T01:10:46;97096.13;;;7.84
72054;BMP280;59918;51.280;7.950;2023-12-14T01:13:11;97090.22;;;7.84
72054;BMP280;59918;51.280;7.950;2023-12-14T01:15:36;97095.94;;;7.86
72054;BMP280;59918;51.280;7.950;2023-12-14T01:18:02;97097.47;;;7.87
72054;BMP280;59918;51.280;7.950;2023-12-14T01:20:27;97102.41;;;7.88
72054;BMP280;59918;51.280;7.950;2023-12-14T01:22:52;97097.28;;;7.88
72054;BMP280;59918;51.280;7.950;2023-12-14T01:25:18;97104.78;;;7.90
72054;BMP280;59918;51.280;7.950;2023-12-14T01:27:43;97110.66;;;7.90
72054;BMP280;59918;51.280;7.950;2023-12-14T01:30:08;97123.28;;;7.92
72054;BMP280;59918;51.280;7.950;2023-12-14T01:32:34;97121.50;;;7.92
72054;BMP280;59918;51.280;7.950;2023-12-14T01:34:59;97124.81;;;7.93
72054;BMP280;59918;51.280;7.950;2023-12-14T01:37:24;97124.63;;;7.94
72054;BMP280;59918;51.280;7.950;2023-12-14T01:39:50;97138.00;;;7.96
72054;BMP280;59918;51.280;7.950;2023-12-14T01:42:15;97139.38;;;7.98
72054;BMP280;59918;51.280;7.950;2023-12-14T01:44:40;97151.78;;;8.01
72054;BMP280;59918;51.280;7.950;2023-12-14T01:47:05;97152.38;;;8.03
72054;BMP280;59918;51.280;7.950;2023-12-14T01:49:31;97161.59;;;8.04
72054;BMP280;59918;51.280;7.950;2023-12-14T01:51:56;97167.72;;;8.03
72054;BMP280;59918;51.280;7.950;2023-12-14T01:54:21;97180.91;;;8.00
72054;BMP280;59918;51.280;7.950;2023-12-14T01:56:46;97176.81;;;7.99
72054;BMP280;59918;51.280;7.950;2023-12-14T01:59:12;97183.13;;;7.97
72054;BMP280;59918;51.280;7.950;2023-12-14T02:01:41;97189.81;;;7.98
72054;BMP280;59918;51.280;7.950;2023-12-14T02:04:07;97195.13;;;7.97
72054;BMP280;59918;51.280;7.950;2023-12-14T02:06:33;97200.47;;;7.95
72054;BMP280;59918;51.280;7.950;2023-12-14T02:08:58;97202.44;;;7.93
72054;BMP280;59918;51.280;7.950;2023-12-14T02:11:24;97206.16;;;7.91
72054;BMP280;59918;51.280;7.950;2023-12-14T02:13:49;97216.81;;;7.88
72054;BMP280;59918;51.280;7.950;2023-12-14T02:16:17;97223.72;;;7.87
72054;BMP280;59918;51.280;7.950;2023-12-14T02:18:42;97223.91;;;7.86
72054;BMP280;59918;51.280;7.950;2023-12-14T02:21:07;97218.22;;;7.84
72054;BMP280;59918;51.280;7.950;2023-12-14T02:23:32;97209.94;;;7.82
72054;BMP280;59918;51.280;7.950;2023-12-14T02:25:57;97221.75;;;7.83
72054;BMP280;59918;51.280;7.950;2023-12-14T02:28:23;97222.75;;;7.82
72054;BMP280;59918;51.280;7.950;2023-12-14T02:30:48;97224.72;;;7.80
72054;BMP280;59918;51.280;7.950;2023-12-14T02:33:13;97221.56;;;7.78
72054;BMP280;59918;51.280;7.950;2023-12-14T02:35:38;97228.66;;;7.76
72054;BMP280;59918;51.280;7.950;2023-12-14T02:38:04;97231.59;;;7.73
72054;BMP280;59918;51.280;7.950;2023-12-14T02:40:29;97237.91;;;7.70
72054;BMP280;59918;51.280;7.950;2023-12-14T02:42:54;97248.56;;;7.67
72054;BMP280;59918;51.280;7.950;2023-12-14T02:45:19;97244.00;;;7.63
72054;BMP280;59918;51.280;7.950;2023-12-14T02:47:45;97255.25;;;7.62
72054;BMP280;59918;51.280;7.950;2023-12-14T02:50:10;97261.34;;;7.61
72054;BMP280;59918;51.280;7.950;2023-12-14T02:52:35;97261.56;;;7.60
72054;BMP280;59918;51.280;7.950;2023-12-14T02:55:00;97264.50;;;7.57
72054;BMP280;59918;51.280;7.950;2023-12-14T02:57:26;97271.19;;;7.51
72054;BMP280;59918;51.280;7.950;2023-12-14T02:59:51;97279.84;;;7.50
72054;BMP280;59918;51.280;7.950;2023-12-14T03:02:16;97277.50;;;7.49
72054;BMP280;59918;51.280;7.950;2023-12-14T03:04:42;97293.03;;;7.47
72054;BMP280;59918;51.280;7.950;2023-12-14T03:07:09;97299.13;;;7.46
72054;BMP280;59918;51.280;7.950;2023-12-14T03:09:34;97303.66;;;7.44
72054;BMP280;59918;51.280;7.950;2023-12-14T03:12:00;97302.06;;;7.43
72054;BMP280;59918;51.280;7.950;2023-12-14T03:14:26;97308.78;;;7.44
72054;BMP280;59918;51.280;7.950;2023-12-14T03:16:51;97308.78;;;7.44
72054;BMP280;59918;51.280;7.950;2023-12-14T03:19:16;97317.44;;;7.43
72054;BMP280;59918;51.280;7.950;2023-12-14T03:21:42;97321.34;;;7.46
72054;BMP280;59918;51.280;7.950;2023-12-14T03:24:07;97323.91;;;7.46
72054;BMP280;59918;51.280;7.950;2023-12-14T03:26:33;97324.72;;;7.46
72054;BMP280;59918;51.280;7.950;2023-12-14T03:28:58;97321.16;;;7.47
72054;BMP280;59918;51.280;7.950;2023-12-14T03:31:23;97328.84;;;7.47
72054;BMP280;59918;51.280;7.950;2023-12-14T03:33:48;97329.63;;;7.48
72054;BMP280;59918;51.280;7.950;2023-12-14T03:36:14;97335.53;;;7.48
72054;BMP280;59918;51.280;7.950;2023-12-14T03:38:39;97335.53;;;7.48
72054;BMP280;59918;51.280;7.950;2023-12-14T03:41:04;97341.03;;;7.45
72054;BMP280;59918;51.280;7.950;2023-12-14T03:43:29;97336.09;;;7.44
72054;BMP280;59918;51.280;7.950;2023-12-14T03:45:55;97347.53;;;7.41
72054;BMP280;59918;51.280;7.950;2023-12-14T03:48:20;97348.91;;;7.37
72054;BMP280;59918;51.280;7.950;2023-12-14T03:50:45;97353.59;;;7.34
72054;BMP280;59918;51.280;7.950;2023-12-14T03:53:10;97359.13;;;7.31
72054;BMP280;59918;51.280;7.950;2023-12-14T03:55:36;97362.28;;;7.27
72054;BMP280;59918;51.280;7.950;2023-12-14T03:58:01;97365.78;;;7.26
72054;BMP280;59918;51.280;7.950;2023-12-14T04:00:26;97372.50;;;7.27
72054;BMP280;59918;51.280;7.950;2023-12-14T04:02:52;97372.50;;;7.27
72054;BMP280;59918;51.280;7.950;2023-12-14T04:05:17;97371.09;;;7.24
72054;BMP280;59918;51.280;7.950;2023-12-14T04:07:42;97369.34;;;7.25
72054;BMP280;59918;51.280;7.950;2023-12-14T04:10:09;97371.31;;;7.23
72054;BMP280;59918;51.280;7.950;2023-12-14T04:12:37;97379.94;;;7.22
72054;BMP280;59918;51.280;7.950;2023-12-14T04:15:04;97373.66;;;7.18
72054;BMP280;59918;51.280;7.950;2023-12-14T04:17:30;97389.75;;;7.18
72054;BMP280;59918;51.280;7.950;2023-12-14T04:19:55;97394.28;;;7.16
72054;BMP280;59918;51.280;7.950;2023-12-14T04:22:21;97393.50;;;7.16
72054;BMP280;59918;51.280;7.950;2023-12-14T04:24:52;97400.38;;;7.15
72054;BMP280;59918;51.280;7.950;2023-12-14T04:27:18;97409.03;;;7.14
72054;BMP280;59918;51.280;7.950;2023-12-14T04:29:43;97417.50;;;7.15
72054;BMP280;59918;51.280;7.950;2023-12-14T04:32:09;97427.75;;;7.15
72054;BMP280;59918;51.280;7.950;2023-12-14T04:34:34;97440.53;;;7.15
72054;BMP280;59918;51.280;7.950;2023-12-14T04:37:00;97443.09;;;7.15
72054;BMP280;59918;51.280;7.950;2023-12-14T04:39:25;97441.50;;;7.14
72054;BMP280;59918;51.280;7.950;2023-12-14T04:41:51;97448.38;;;7.13
72054;BMP280;59918;51.280;7.950;2023-12-14T04:44:16;97449.56;;;7.11
72054;BMP280;59918;51.280;7.950;2023-12-14T04:46:42;97455.44;;;7.11
72054;BMP280;59918;51.280;7.950;2023-12-14T04:49:07;97447.97;;;7.10
72054;BMP280;59918;51.280;7.950;2023-12-14T04:51:32;97451.50;;;7.09
72054;BMP280;59918;51.280;7.950;2023-12-14T04:53:57;97454.25;;;7.07
72054;BMP280;59918;51.280;7.950;2023-12-14T04:56:23;97462.09;;;7.06
72054;BMP280;59918;51.280;7.950;2023-12-14T04:58:48;97466.78;;;7.02
72054;BMP280;59918;51.280;7.950;2023-12-14T05:01:13;97472.13;;;7.01
72054;BMP280;59918;51.280;7.950;2023-12-14T05:03:38;97475.03;;;6.98
72054;BMP280;59918;51.280;7.950;2023-12-14T05:06:04;97483.50;;;6.98
72054;BMP280;59918;51.280;7.950;2023-12-14T05:08:29;97499.66;;;6.99
72054;BMP280;59918;51.280;7.950;2023-12-14T05:10:54;97498.66;;;7.00
72054;BMP280;59918;51.280;7.950;2023-12-14T05:13:19;97496.28;;;6.98
72054;BMP280;59918;51.280;7.950;2023-12-14T05:15:45;97506.72;;;6.97
72054;BMP280;59918;51.280;7.950;2023-12-14T05:18:10;97505.13;;;6.96
72054;BMP280;59918;51.280;7.950;2023-12-14T05:20:35;97508.66;;;6.95
72054;BMP280;59918;51.280;7.950;2023-12-14T05:23:01;97506.91;;;6.95
72054;BMP280;59918;51.280;7.950;2023-12-14T05:25:26;97505.28;;;6.94
72054;BMP280;59918;51.280;7.950;2023-12-14T05:27:52;97505.47;;;6.93
72054;BMP280;59918;51.280;7.950;2023-12-14T05:30:17;97503.75;;;6.93
72054;BMP280;59918;51.280;7.950;2023-12-14T05:32:42;97509.81;;;6.92
72054;BMP280;59918;51.280;7.950;2023-12-14T05:35:07;97509.03;;;6.92
72054;BMP280;59918;51.280;7.950;2023-12-14T05:37:33;97518.25;;;6.93
72054;BMP280;59918;51.280;7.950;2023-12-14T05:39:58;97520.03;;;6.92
72054;BMP280;59918;51.280;7.950;2023-12-14T05:42:23;97517.06;;;6.89
72054;BMP280;59918;51.280;7.950;2023-12-14T05:44:48;97525.72;;;6.88
72054;BMP280;59918;51.280;7.950;2023-12-14T05:47:14;97533.22;;;6.90
72054;BMP280;59918;51.280;7.950;2023-12-14T05:49:43;97546.16;;;6.88
72054;BMP280;59918;51.280;7.950;2023-12-14T05:52:08;97544.78;;;6.86
72054;BMP280;59918;51.280;7.950;2023-12-14T05:54:36;97556.75;;;6.85
72054;BMP280;59918;51.280;7.950;2023-12-14T05:57:01;97561.25;;;6.83
72054;BMP280;59918;51.280;7.950;2023-12-14T05:59:27;97557.50;;;6.79
72054;BMP280;59918;51.280;7.950;2023-12-14T06:01:59;97565.75;;;6.81
72054;BMP280;59918;51.280;7.950;2023-12-14T06:04:26;97570.09;;;6.81
72054;BMP280;59918;51.280;7.950;2023-12-14T06:06:51;97571.25;;;6.78
72054;BMP280;59918;51.280;7.950;2023-12-14T06:09:17;97577.34;;;6.77
72054;BMP280;59918;51.280;7.950;2023-12-14T06:11:42;97581.66;;;6.77
72054;BMP280;59918;51.280;7.950;2023-12-14T06:14:07;97581.84;;;6.75
72054;BMP280;59918;51.280;7.950;2023-12-14T06:16:32;97581.84;;;6.75
72054;BMP280;59918;51.280;7.950;2023-12-14T06:18:58;97582.81;;;6.74
72054;BMP280;59918;51.280;7.950;2023-12-14T06:21:23;97586.34;;;6.73
72054;BMP280;59918;51.280;7.950;2023-12-14T06:23:48;97600.72;;;6.74
72054;BMP280;59918;51.280;7.950;2023-12-14T06:26:13;97602.28;;;6.75
72054;BMP280;59918;51.280;7.950;2023-12-14T06:28:39;97603.44;;;6.73
72054;BMP280;59918;51.280;7.950;2023-12-14T06:31:04;97611.13;;;6.73
72054;BMP280;59918;51.280;7.950;2023-12-14T06:33:31;97616.22;;;6.73
72054;BMP280;59918;51.280;7.950;2023-12-14T06:35:56;97617.22;;;6.72
72054;BMP280;59918;51.280;7.950;2023-12-14T06:38:21;97614.84;;;6.70
72054;BMP280;59918;51.280;7.950;2023-12-14T06:40:46;97624.28;;;6.70
72054;BMP280;59918;51.280;7.950;2023-12-14T06:43:11;97623.47;;;6.69
72054;BMP280;59918;51.280;7.950;2023-12-14T06:45:37;97627.00;;;6.68
72054;BMP280;59918;51.280;7.950;2023-12-14T06:48:02;97632.91;;;6.69
72054;BMP280;59918;51.280;7.950;2023-12-14T06:50:27;97638.78;;;6.69
72054;BMP280;59918;51.280;7.950;2023-12-14T06:52:53;97638.00;;;6.69
72054;BMP280;59918;51.280;7.950;2023-12-14T06:55:18;97643.50;;;6.66
72054;BMP280;59918;51.280;7.950;2023-12-14T06:57:43;97652.31;;;6.63
72054;BMP280;59918;51.280;7.950;2023-12-14T07:00:09;97653.63;;;6.59
72054;BMP280;59918;51.280;7.950;2023-12-14T07:02:36;97656.41;;;6.58
72054;BMP280;59918;51.280;7.950;2023-12-14T07:05:02;97660.09;;;6.55
72054;BMP280;59918;51.280;7.950;2023-12-14T07:07:27;97671.28;;;6.54
72054;BMP280;59918;51.280;7.950;2023-12-14T07:09:52;97678.19;;;6.54
72054;BMP280;59918;51.280;7.950;2023-12-14T07:12:17;97675.00;;;6.52
72054;BMP280;59918;51.280;7.950;2023-12-14T07:14:43;97689.53;;;6.52
72054;BMP280;59918;51.280;7.950;2023-12-14T07:17:08;97697.19;;;6.52
72054;BMP280;59918;51.280;7.950;2023-12-14T07:19:33;97700.13;;;6.49
72054;BMP280;59918;51.280;7.950;2023-12-14T07:21:59;97712.09;;;6.48
72054;BMP280;59918;51.280;7.950;2023-12-14T07:24:24;97715.44;;;6.49
72054;BMP280;59918;51.280;7.950;2023-12-14T07:26:49;97723.13;;;6.49
72054;BMP280;59918;51.280;7.950;2023-12-14T07:29:14;97723.91;;;6.49
72054;BMP280;59918;51.280;7.950;2023-12-14T07:31:39;97731.38;;;6.51
72054;BMP280;59918;51.280;7.950;2023-12-14T07:34:05;97737.66;;;6.48
72054;BMP280;59918;51.280;7.950;2023-12-14T07:36:30;97750.94;;;6.44
72054;BMP280;59918;51.280;7.950;2023-12-14T07:38:55;97747.78;;;6.42
72054;BMP280;59918;51.280;7.950;2023-12-14T07:41:20;97752.09;;;6.41
72054;BMP280;59918;51.280;7.950;2023-12-14T07:43:46;97758.00;;;6.42
72054;BMP280;59918;51.280;7.950;2023-12-14T07:46:11;97756.88;;;6.44
72054;BMP280;59918;51.280;7.950;2023-12-14T07:48:36;97766.28;;;6.44
72054;BMP280;59918;51.280;7.950;2023-12-14T07:51:01;97767.09;;;6.44
72054;BMP280;59918;51.280;7.950;2023-12-14T07:53:27;97767.88;;;6.45
72054;BMP280;59918;51.280;7.950;2023-12-14T07:55:54;97781.09;;;6.48
72054;BMP280;59918;51.280;7.950;2023-12-14T07:58:19;97782.81;;;6.48
72054;BMP280;59918;51.280;7.950;2023-12-14T08:00:45;97786.00;;;6.50
72054;BMP280;59918;51.280;7.950;2023-12-14T08:03:10;97792.88;;;6.49
72054;BMP280;59918;51.280;7.950;2023-12-14T08:05:35;97797.81;;;6.51
72054;BMP280;59918;51.280;7.950;2023-12-14T08:08:00;97797.81;;;6.51
72054;BMP280;59918;51.280;7.950;2023-12-14T08:10:26;97795.44;;;6.49
72054;BMP280;59918;51.280;7.950;2023-12-14T08:12:51;97797.97;;;6.49
72054;BMP280;59918;51.280;7.950;2023-12-14T08:15:16;97810.75;;;6.49
72054;BMP280;59918;51.280;7.950;2023-12-14T08:17:44;97810.91;;;6.48
72054;BMP280;59918;51.280;7.950;2023-12-14T08:20:09;97810.31;;;6.46
72054;BMP280;59918;51.280;7.950;2023-12-14T08:22:35;97829.00;;;6.46
72054;BMP280;59918;51.280;7.950;2023-12-14T08:25:00;97833.50;;;6.44
72054;BMP280;59918;51.280;7.950;2023-12-14T08:27:25;97827.41;;;6.45
72054;BMP280;59918;51.280;7.950;2023-12-14T08:29:50;97846.06;;;6.46
72054;BMP280;59918;51.280;7.950;2023-12-14T08:32:18;97850.41;;;6.45
72054;BMP280;59918;51.280;7.950;2023-12-14T08:34:43;97857.09;;;6.46
72054;BMP280;59918;51.280;7.950;2023-12-14T08:37:08;97861.75;;;6.43
72054;BMP280;59918;51.280;7.950;2023-12-14T08:39:33;97860.53;;;6.39
72054;BMP280;59918;51.280;7.950;2023-12-14T08:41:59;97866.59;;;6.38
72054;BMP280;59918;51.280;7.950;2023-12-14T08:44:24;97875.25;;;6.37
72054;BMP280;59918;51.280;7.950;2023-12-14T08:46:50;97877.78;;;6.37
72054;BMP280;59918;51.280;7.950;2023-12-14T08:49:15;97883.69;;;6.37
72054;BMP280;59918;51.280;7.950;2023-12-14T08:51:42;97875.84;;;6.39
72054;BMP280;59918;51.280;7.950;2023-12-14T08:54:07;97891.81;;;6.41
72054;BMP280;59918;51.280;7.950;2023-12-14T08:56:32;97895.31;;;6.40
72054;BMP280;59918;51.280;7.950;2023-12-14T08:58:58;97898.69;;;6.40
72054;BMP280;59918;51.280;7.950;2023-12-14T09:01:23;97904.91;;;6.38
72054;BMP280;59918;51.280;7.950;2023-12-14T09:03:49;97909.22;;;6.37
72054;BMP280;59918;51.280;7.950;2023-12-14T09:06:16;97908.28;;;6.38
72054;BMP280;59918;51.280;7.950;2023-12-14T09:08:41;97917.50;;;6.39
72054;BMP280;59918;51.280;7.950;2023-12-14T09:11:07;97921.66;;;6.40
72054;BMP280;59918;51.280;7.950;2023-12-14T09:13:32;97934.59;;;6.39
72054;BMP280;59918;51.280;7.950;2023-12-14T09:15:57;97941.13;;;6.41
72054;BMP280;59918;51.280;7.950;2023-12-14T09:18:22;97934.44;;;6.40
72054;BMP280;59918;51.280;7.950;2023-12-14T09:20:48;97953.72;;;6.43
72054;BMP280;59918;51.280;7.950;2023-12-14T09:23:16;97947.63;;;6.44
72054;BMP280;59918;51.280;7.950;2023-12-14T09:25:41;97952.56;;;6.45
72054;BMP280;59918;51.280;7.950;2023-12-14T09:28:06;97955.75;;;6.47
72054;BMP280;59918;51.280;7.950;2023-12-14T09:30:32;97954.34;;;6.45
72054;BMP280;59918;51.280;7.950;2023-12-14T09:32:57;97957.69;;;6.45
72054;BMP280;59918;51.280;7.950;2023-12-14T09:35:22;97967.13;;;6.45
72054;BMP280;59918;51.280;7.950;2023-12-14T09:37:47;97977.34;;;6.45
72054;BMP280;59918;51.280;7.950;2023-12-14T09:40:13;97975.56;;;6.45
72054;BMP280;59918;51.280;7.950;2023-12-14T09:42:39;97989.75;;;6.48
72054;BMP280;59918;51.280;7.950;2023-12-14T09:45:06;97999.34;;;6.46
72054;BMP280;59918;51.280;7.950;2023-12-14T09:47:32;98001.28;;;6.44
72054;BMP280;59918;51.280;7.950;2023-12-14T09:49:58;97998.09;;;6.42
72054;BMP280;59918;51.280;7.950;2023-12-14T09:52:25;98003.22;;;6.42
72054;BMP280;59918;51.280;7.950;2023-12-14T09:54:50;98004.81;;;6.43
72054;BMP280;59918;51.280;7.950;2023-12-14T09:57:15;98015.81;;;6.43
72054;BMP280;59918;51.280;7.950;2023-12-14T09:59:40;98012.47;;;6.43
72054;BMP280;59918;51.280;7.950;2023-12-14T10:02:12;98010.38;;;6.46
72054;BMP280;59918;51.280;7.950;2023-12-14T10:04:42;98015.28;;;6.48
72054;BMP280;59918;51.280;7.950;2023-12-14T10:07:07;98022.00;;;6.49
72054;BMP280;59918;51.280;7.950;2023-12-14T10:09:34;98024.19;;;6.52
72054;BMP280;59918;51.280;7.950;2023-12-14T10:12:07;98028.81;;;6.56
72054;BMP280;59918;51.280;7.950;2023-12-14T10:14:34;98028.75;;;6.64
72054;BMP280;59918;51.280;7.950;2023-12-14T10:17:13;98038.25;;;6.70
72054;BMP280;59918;51.280;7.950;2023-12-14T10:19:42;98032.47;;;6.76
72054;BMP280;59918;51.280;7.950;2023-12-14T10:22:08;98044.53;;;6.82
72054;BMP280;59918;51.280;7.950;2023-12-14T10:24:33;98041.91;;;6.90
72054;BMP280;59918;51.280;7.950;2023-12-14T10:26:58;98039.25;;;6.97
72054;BMP280;59918;51.280;7.950;2023-12-14T10:29:23;98039.09;;;6.99
72054;BMP280;59918;51.280;7.950;2023-12-14T10:31:49;98041.28;;;7.02
72054;BMP280;59918;51.280;7.950;2023-12-14T10:34:14;98049.41;;;7.05
72054;BMP280;59918;51.280;7.950;2023-12-14T10:36:40;98051.78;;;7.07
72054;BMP280;59918;51.280;7.950;2023-12-14T10:39:08;98048.09;;;7.09
72054;BMP280;59918;51.280;7.950;2023-12-14T10:41:36;98056.53;;;7.10
72054;BMP280;59918;51.280;7.950;2023-12-14T10:44:03;98047.91;;;7.11
72054;BMP280;59918;51.280;7.950;2023-12-14T10:46:29;98057.44;;;7.17
72054;BMP280;59918;51.280;7.950;2023-12-14T10:48:54;98056.47;;;7.18
72054;BMP280;59918;51.280;7.950;2023-12-14T10:51:21;98056.47;;;7.18
72054;BMP280;59918;51.280;7.950;2023-12-14T10:53:47;98062.91;;;7.14
72054;BMP280;59918;51.280;7.950;2023-12-14T10:56:13;98057.31;;;7.10
72054;BMP280;59918;51.280;7.950;2023-12-14T10:58:52;98059.63;;;7.05
72054;BMP280;59918;51.280;7.950;2023-12-14T11:01:22;98075.75;;;7.06
72054;BMP280;59918;51.280;7.950;2023-12-14T11:03:48;98084.41;;;7.05
72054;BMP280;59918;51.280;7.950;2023-12-14T11:06:21;98084.41;;;7.05
72054;BMP280;59918;51.280;7.950;2023-12-14T11:08:46;98086.97;;;7.05
72054;BMP280;59918;51.280;7.950;2023-12-14T11:11:11;98089.53;;;7.05
72054;BMP280;59918;51.280;7.950;2023-12-14T11:13:37;98090.50;;;7.04
72054;BMP280;59918;51.280;7.950;2023-12-14T11:16:02;98095.59;;;7.04
72054;BMP280;59918;51.280;7.950;2023-12-14T11:18:27;98096.38;;;7.04
72054;BMP280;59918;51.280;7.950;2023-12-14T11:21:02;98094.19;;;7.01
72054;BMP280;59918;51.280;7.950;2023-12-14T11:23:36;98103.63;;;7.01
72054;BMP280;59918;51.280;7.950;2023-12-14T11:26:06;98110.94;;;7.04
72054;BMP280;59918;51.280;7.950;2023-12-14T11:28:35;98112.25;;;7.00
72054;BMP280;59918;51.280;7.950;2023-12-14T11:31:00;98117.28;;;7.08
72054;BMP280;59918;51.280;7.950;2023-12-14T11:33:26;98124.03;;;7.09
72054;BMP280;59918;51.280;7.950;2023-12-14T11:35:51;98121.78;;;7.06
72054;BMP280;59918;51.280;7.950;2023-12-14T11:38:16;98124.53;;;7.04
72054;BMP280;59918;51.280;7.950;2023-12-14T11:40:42;98130.78;;;7.02
72054;BMP280;59918;51.280;7.950;2023-12-14T11:43:08;98129.00;;;7.02
72054;BMP280;59918;51.280;7.950;2023-12-14T11:45:42;98129.38;;;6.99
72054;BMP280;59918;51.280;7.950;2023-12-14T11:48:09;98135.44;;;6.98
72054;BMP280;59918;51.280;7.950;2023-12-14T11:50:35;98145.25;;;6.95
72054;BMP280;59918;51.280;7.950;2023-12-14T11:53:01;98145.56;;;6.92
72054;BMP280;59918;51.280;7.950;2023-12-14T11:55:26;98141.78;;;6.88
72054;BMP280;59918;51.280;7.950;2023-12-14T11:57:52;98145.47;;;6.86
72054;BMP280;59918;51.280;7.950;2023-12-14T12:00:17;98143.41;;;6.81
72054;BMP280;59918;51.280;7.950;2023-12-14T12:02:42;98149.69;;;6.79
72054;BMP280;59918;51.280;7.950;2023-12-14T12:05:08;98152.38;;;6.77
72054;BMP280;59918;51.280;7.950;2023-12-14T12:07:33;98149.22;;;6.75
72054;BMP280;59918;51.280;7.950;2023-12-14T12:09:59;98149.91;;;6.69
72054;BMP280;59918;51.280;7.950;2023-12-14T12:12:24;98154.38;;;6.67
72054;BMP280;59918;51.280;7.950;2023-12-14T12:14:49;98154.91;;;6.63
72054;BMP280;59918;51.280;7.950;2023-12-14T12:17:15;98164.19;;;6.64
72054;BMP280;59918;51.280;7.950;2023-12-14T12:19:40;98162.56;;;6.63
72054;BMP280;59918;51.280;7.950;2023-12-14T12:22:05;98153.50;;;6.60
72054;BMP280;59918;51.280;7.950;2023-12-14T12:24:30;98161.94;;;6.61
72054;BMP280;59918;51.280;7.950;2023-12-14T12:26:56;98163.88;;;6.59
72054;BMP280;59918;51.280;7.950;2023-12-14T12:29:22;98160.53;;;6.58
72054;BMP280;59918;51.280;7.950;2023-12-14T12:31:47;98155.44;;;6.58
72054;BMP280;59918;51.280;7.950;2023-12-14T12:34:13;98158.78;;;6.59
72054;BMP280;59918;51.280;7.950;2023-12-14T12:36:38;98158.44;;;6.62
72054;BMP280;59918;51.280;7.950;2023-12-14T12:39:03;98159.06;;;6.64
72054;BMP280;59918;51.280;7.950;2023-12-14T12:41:29;98165.59;;;6.66
72054;BMP280;59918;51.280;7.950;2023-12-14T12:43:54;98164.97;;;6.64
72054;BMP280;59918;51.280;7.950;2023-12-14T12:46:19;98171.66;;;6.65
72054;BMP280;59918;51.280;7.950;2023-12-14T12:48:44;98174.22;;;6.65
72054;BMP280;59918;51.280;7.950;2023-12-14T12:51:10;98174.06;;;6.67
72054;BMP280;59918;51.280;7.950;2023-12-14T12:53:35;98176.28;;;6.70
72054;BMP280;59918;51.280;7.950;2023-12-14T12:56:00;98176.44;;;6.68
72054;BMP280;59918;51.280;7.950;2023-12-14T12:58:26;98175.19;;;6.64
72054;BMP280;59918;51.280;7.950;2023-12-14T13:00:51;98177.91;;;6.63
72054;BMP280;59918;51.280;7.950;2023-12-14T13:03:16;98185.94;;;6.60
72054;BMP280;59918;51.280;7.950;2023-12-14T13:05:41;98179.06;;;6.60
72054;BMP280;59918;51.280;7.950;2023-12-14T13:08:06;98175.50;;;6.61
72054;BMP280;59918;51.280;7.950;2023-12-14T13:10:34;98176.50;;;6.60
72054;BMP280;59918;51.280;7.950;2023-12-14T13:12:59;98180.00;;;6.59
72054;BMP280;59918;51.280;7.950;2023-12-14T13:15:25;98174.25;;;6.57
72054;BMP280;59918;51.280;7.950;2023-12-14T13:17:50;98182.91;;;6.56
72054;BMP280;59918;51.280;7.950;2023-12-14T13:20:15;98188.97;;;6.55
72054;BMP280;59918;51.280;7.950;2023-12-14T13:22:40;98188.97;;;6.55
72054;BMP280;59918;51.280;7.950;2023-12-14T13:25:06;98198.56;;;6.53
72054;BMP280;59918;51.280;7.950;2023-12-14T13:27:31;98197.94;;;6.52
72054;BMP280;59918;51.280;7.950;2023-12-14T13:29:57;98202.25;;;6.51
72054;BMP280;59918;51.280;7.950;2023-12-14T13:32:22;98212.47;;;6.51
72054;BMP280;59918;51.280;7.950;2023-12-14T13:34:47;98217.59;;;6.51
72054;BMP280;59918;51.280;7.950;2023-12-14T13:37:12;98225.09;;;6.53
72054;BMP280;59918;51.280;7.950;2023-12-14T13:39:37;98234.53;;;6.52
72054;BMP280;59918;51.280;7.950;2023-12-14T13:42:06;98237.25;;;6.51
72054;BMP280;59918;51.280;7.950;2023-12-14T13:44:32;98245.84;;;6.50
72054;BMP280;59918;51.280;7.950;2023-12-14T13:46:57;98258.63;;;6.50
72054;BMP280;59918;51.280;7.950;2023-12-14T13:49:23;98259.63;;;6.49
72054;BMP280;59918;51.280;7.950;2023-12-14T13:51:48;98262.16;;;6.49
72054;BMP280;59918;51.280;7.950;2023-12-14T13:54:13;98268.41;;;6.46
72054;BMP280;59918;51.280;7.950;2023-12-14T13:56:38;98269.38;;;6.45
72054;BMP280;59918;51.280;7.950;2023-12-14T13:59:03;98274.47;;;6.45
72054;BMP280;59918;51.280;7.950;2023-12-14T14:01:29;98273.53;;;6.46
72054;BMP280;59918;51.280;7.950;2023-12-14T14:03:54;98269.38;;;6.45
72054;BMP280;59918;51.280;7.950;2023-12-14T14:06:19;98281.34;;;6.45
72054;BMP280;59918;51.280;7.950;2023-12-14T14:08:44;98291.72;;;6.43
72054;BMP280;59918;51.280;7.950;2023-12-14T14:11:10;98300.38;;;6.42